createdAt,value
2023-10-21T00:03:13.851Z,21.74
2023-10-21T00:06:38.153Z,21.83
2023-10-21T00:10:00.531Z,21.78
2023-10-21T00:13:23.410Z,21.80
2023-10-21T00:16:45.130Z,21.77
2023-10-21T00:20:10.330Z,21.83
2023-10-21T00:23:32.366Z,21.71
2023-10-21T00:26:54.259Z,21.70
2023-10-21T00:30:15.972Z,21.78
2023-10-21T00:33:40.514Z,21.90
2023-10-21T00:37:02.184Z,21.85
2023-10-21T00:40:23.920Z,21.74
2023-10-21T00:43:45.702Z,21.77
2023-10-21T00:47:07.327Z,21.65
2023-10-21T00:50:32.092Z,21.70
2023-10-21T00:53:55.262Z,21.75
2023-10-21T00:57:21.667Z,21.73
2023-10-21T01:00:46.115Z,21.74
2023-10-21T01:04:09.868Z,21.73
2023-10-21T01:07:36.434Z,21.81
2023-10-21T01:10:59.696Z,21.87
2023-10-21T01:14:21.606Z,21.80
2023-10-21T01:17:49.035Z,21.78
2023-10-21T01:21:11.246Z,21.84
2023-10-21T01:24:35.215Z,21.80
2023-10-21T01:27:57.151Z,21.78
2023-10-21T01:31:18.774Z,21.92
2023-10-21T01:34:43.108Z,21.87
2023-10-21T01:38:07.003Z,21.84
2023-10-21T01:41:33.089Z,21.78
2023-10-21T01:44:59.447Z,21.80
2023-10-21T01:48:23.553Z,21.81
2023-10-21T01:51:45.464Z,21.75
2023-10-21T01:55:11.362Z,21.78
2023-10-21T01:58:33.306Z,21.71
2023-10-21T02:01:55.206Z,21.75
2023-10-21T02:05:23.592Z,21.73
2023-10-21T02:08:47.914Z,21.71
2023-10-21T02:12:10.293Z,21.67
2023-10-21T02:15:36.301Z,21.56
2023-10-21T02:18:57.942Z,21.53
2023-10-21T02:22:19.672Z,21.51
2023-10-21T02:25:41.311Z,21.57
2023-10-21T02:29:03.154Z,21.49
2023-10-21T02:32:24.857Z,21.61
2023-10-21T02:35:52.220Z,21.56
2023-10-21T02:39:14.549Z,21.49
2023-10-21T02:42:37.231Z,21.46
2023-10-21T02:46:10.727Z,21.45
2023-10-21T02:49:35.109Z,21.39
2023-10-21T02:52:56.927Z,21.37
2023-10-21T02:56:18.608Z,21.35
2023-10-21T02:59:40.185Z,21.27
2023-10-21T03:03:04.673Z,21.26
2023-10-21T03:06:28.502Z,21.19
2023-10-21T03:09:52.603Z,21.09
2023-10-21T03:13:14.196Z,21.23
2023-10-21T03:16:38.132Z,21.15
2023-10-21T03:20:04.573Z,21.00
2023-10-21T03:23:26.258Z,20.99
2023-10-21T03:26:47.909Z,20.98
2023-10-21T03:30:13.222Z,20.98
2023-10-21T03:33:42.478Z,20.95
2023-10-21T03:37:04.613Z,20.94
2023-10-21T03:40:28.717Z,20.88
2023-10-21T03:43:51.452Z,20.84
2023-10-21T03:47:13.108Z,20.81
2023-10-21T03:50:37.012Z,20.81
2023-10-21T03:53:59.095Z,20.75
2023-10-21T03:57:20.841Z,20.74
2023-10-21T04:00:44.745Z,20.67
2023-10-21T04:04:10.319Z,20.64
2023-10-21T04:07:32.016Z,20.72
2023-10-21T04:10:54.279Z,20.71
2023-10-21T04:14:15.875Z,20.68
2023-10-21T04:17:39.570Z,20.74
2023-10-21T04:21:03.466Z,20.74
2023-10-21T04:24:25.160Z,20.75
2023-10-21T04:27:46.846Z,20.85
2023-10-21T04:31:11.074Z,20.95
2023-10-21T04:34:35.894Z,20.99
2023-10-21T04:37:57.976Z,21.05
2023-10-21T04:41:19.638Z,20.99
2023-10-21T04:44:41.321Z,20.89
2023-10-21T04:48:04.954Z,20.88
2023-10-21T04:51:26.754Z,20.74
2023-10-21T04:54:48.477Z,20.65
2023-10-21T04:58:10.154Z,20.58
2023-10-21T05:01:34.246Z,20.41
2023-10-21T05:04:58.198Z,20.33
2023-10-21T05:08:19.818Z,20.20
2023-10-21T05:11:43.881Z,20.05
2023-10-21T05:15:06.167Z,20.02
2023-10-21T05:18:30.308Z,19.86
2023-10-21T05:21:56.873Z,19.78
2023-10-21T05:25:18.918Z,19.66
2023-10-21T05:28:45.411Z,19.58
2023-10-21T05:32:07.306Z,19.41
2023-10-21T05:35:28.898Z,19.43
2023-10-21T05:38:50.997Z,19.38
2023-10-21T05:42:14.829Z,19.26
2023-10-21T05:45:38.831Z,19.28
2023-10-21T05:49:00.437Z,19.26
2023-10-21T05:52:26.768Z,19.28
2023-10-21T05:55:48.513Z,19.34
2023-10-21T05:59:10.177Z,19.27
2023-10-21T06:02:31.947Z,19.13
2023-10-21T06:05:55.916Z,19.10
2023-10-21T06:09:17.637Z,19.14
2023-10-21T06:12:41.309Z,19.13
2023-10-21T06:16:05.375Z,19.14
2023-10-21T06:19:27.137Z,19.07
2023-10-21T06:22:51.215Z,19.07
2023-10-21T06:26:12.930Z,19.06
2023-10-21T06:29:36.093Z,18.99
2023-10-21T06:32:58.506Z,18.97
2023-10-21T06:36:20.679Z,18.95
2023-10-21T06:39:42.751Z,18.97
2023-10-21T06:43:07.078Z,18.92
2023-10-21T06:46:28.930Z,18.86
2023-10-21T06:49:50.596Z,18.85
2023-10-21T06:53:12.242Z,18.89
2023-10-21T06:56:34.326Z,18.88
2023-10-21T06:59:58.515Z,18.92
2023-10-21T07:03:20.314Z,18.88
2023-10-21T07:06:46.557Z,18.85
2023-10-21T07:10:08.605Z,18.86
2023-10-21T07:13:33.048Z,18.82
2023-10-21T07:16:54.727Z,18.82
2023-10-21T07:20:16.457Z,18.77
2023-10-21T07:23:38.124Z,18.68
2023-10-21T07:26:59.920Z,18.72
2023-10-21T07:30:25.593Z,18.69
2023-10-21T07:33:52.073Z,18.68
2023-10-21T07:37:14.715Z,18.68
2023-10-21T07:40:36.542Z,18.65
2023-10-21T07:43:58.124Z,18.70
2023-10-21T07:47:23.729Z,18.79
2023-10-21T07:50:45.431Z,18.82
2023-10-21T07:54:07.252Z,18.88
2023-10-21T07:57:34.825Z,18.80
2023-10-21T08:00:58.772Z,18.70
2023-10-21T08:04:22.799Z,18.80
2023-10-21T08:07:46.954Z,18.82
2023-10-21T08:11:13.228Z,18.88
2023-10-21T08:14:38.365Z,18.92
2023-10-21T08:18:00.270Z,18.92
2023-10-21T08:21:27.013Z,18.95
2023-10-21T08:24:48.682Z,18.97
2023-10-21T08:28:14.808Z,19.13
2023-10-21T08:31:38.985Z,19.16
2023-10-21T08:35:00.648Z,19.10
2023-10-21T08:38:22.378Z,19.09
2023-10-21T08:41:45.230Z,19.07
2023-10-21T08:45:10.636Z,19.04
2023-10-21T08:48:34.361Z,19.04
2023-10-21T08:51:57.603Z,19.09
2023-10-21T08:55:23.238Z,19.11
2023-10-21T08:58:45.021Z,19.21
2023-10-21T09:02:06.992Z,19.31
2023-10-21T09:05:28.916Z,19.32
2023-10-21T09:08:53.116Z,19.31
2023-10-21T09:12:15.141Z,19.30
2023-10-21T09:15:39.287Z,19.34
2023-10-21T09:19:02.075Z,19.28
2023-10-21T09:22:24.581Z,19.27
2023-10-21T09:25:55.816Z,19.28
2023-10-21T09:29:20.619Z,19.28
2023-10-21T09:32:45.480Z,19.27
2023-10-21T09:36:22.116Z,19.21
2023-10-21T09:39:47.642Z,19.18
2023-10-21T09:43:15.150Z,19.24
2023-10-21T09:46:40.897Z,19.31
2023-10-21T09:50:07.609Z,19.43
2023-10-21T09:53:41.631Z,19.55
2023-10-21T09:57:04.188Z,19.68
2023-10-21T10:00:31.261Z,19.66
2023-10-21T10:03:56.920Z,19.82
2023-10-21T10:07:33.712Z,19.95
2023-10-21T10:11:03.442Z,20.58
2023-10-21T10:14:29.659Z,20.67
2023-10-21T10:17:54.352Z,20.63
2023-10-21T10:21:19.288Z,20.75
2023-10-21T10:24:53.071Z,20.91
2023-10-21T10:28:18.949Z,21.47
2023-10-21T10:31:49.712Z,21.25
2023-10-21T10:35:32.104Z,21.19
2023-10-21T10:38:56.093Z,21.20
2023-10-21T10:42:17.892Z,20.99
2023-10-21T10:45:40.359Z,20.88
2023-10-21T10:49:06.397Z,20.72
2023-10-21T10:52:29.792Z,20.63
2023-10-21T10:55:58.193Z,20.55
2023-10-21T10:59:24.452Z,20.51
2023-10-21T11:02:46.182Z,20.47
2023-10-21T11:06:08.028Z,20.47
2023-10-21T11:09:32.241Z,20.47
2023-10-21T11:12:54.198Z,20.64
2023-10-21T11:16:17.059Z,20.70
2023-10-21T11:19:40.904Z,20.81
2023-10-21T11:23:13.842Z,21.10
2023-10-21T11:26:36.585Z,20.96
2023-10-21T11:30:02.076Z,20.94
2023-10-21T11:33:23.935Z,20.95
2023-10-21T11:36:50.313Z,21.09
2023-10-21T11:40:17.131Z,21.22
2023-10-21T11:43:46.144Z,21.12
2023-10-21T11:47:10.920Z,21.05
2023-10-21T11:50:35.033Z,20.99
2023-10-21T11:53:56.730Z,20.89
2023-10-21T11:57:37.320Z,20.95
2023-10-21T12:01:20.235Z,20.95
2023-10-21T12:04:47.734Z,20.99
2023-10-21T12:08:27.929Z,20.89
2023-10-21T12:12:01.617Z,20.88
2023-10-21T12:15:44.250Z,20.91
2023-10-21T12:19:24.306Z,20.79
2023-10-21T12:23:07.025Z,20.68
2023-10-21T12:26:48.594Z,20.58
2023-10-21T12:30:33.805Z,20.39
2023-10-21T12:34:14.108Z,20.24
2023-10-21T12:37:41.669Z,20.12
2023-10-21T12:41:18.758Z,20.09
2023-10-21T12:44:48.889Z,20.13
2023-10-21T12:48:10.619Z,20.02
2023-10-21T12:51:32.736Z,19.95
2023-10-21T12:54:54.378Z,19.81
2023-10-21T12:58:16.107Z,19.76
2023-10-21T13:01:39.731Z,19.75
2023-10-21T13:05:01.917Z,19.55
2023-10-21T13:08:23.552Z,19.39
2023-10-21T13:11:45.161Z,19.41
2023-10-21T13:15:13.226Z,19.37
2023-10-21T13:18:35.291Z,19.35
2023-10-21T13:22:02.183Z,19.27
2023-10-21T13:25:31.335Z,19.24
2023-10-21T13:28:54.183Z,19.13
2023-10-21T13:32:17.472Z,19.21
2023-10-21T13:35:39.113Z,19.21
2023-10-21T13:39:01.677Z,19.28
2023-10-21T13:42:23.457Z,19.28
2023-10-21T13:45:47.451Z,19.23
2023-10-21T13:49:15.376Z,19.28
2023-10-21T13:52:37.568Z,19.24
2023-10-21T13:56:07.616Z,19.31
2023-10-21T13:59:32.983Z,19.28
2023-10-21T14:02:56.843Z,19.28
2023-10-21T14:06:20.872Z,19.30
2023-10-21T14:09:43.380Z,19.31
2023-10-21T14:13:06.072Z,19.27
2023-10-21T14:16:30.578Z,19.32
2023-10-21T14:19:54.832Z,19.28
2023-10-21T14:23:19.525Z,19.20
2023-10-21T14:26:46.383Z,19.24
2023-10-21T14:30:11.390Z,19.24
2023-10-21T14:33:34.105Z,19.18
2023-10-21T14:36:55.764Z,19.11
2023-10-21T14:40:17.372Z,19.20
2023-10-21T14:43:43.480Z,19.18
2023-10-21T14:47:05.485Z,19.21
2023-10-21T14:50:28.693Z,19.07
2023-10-21T14:53:50.364Z,19.11
2023-10-21T14:57:14.508Z,19.16
2023-10-21T15:00:37.698Z,19.07
2023-10-21T15:04:01.892Z,19.00
2023-10-21T15:07:26.020Z,18.93
2023-10-21T15:10:48.246Z,18.96
2023-10-21T15:14:09.968Z,18.90
2023-10-21T15:17:36.454Z,18.93
2023-10-21T15:21:10.061Z,18.82
2023-10-21T15:24:31.737Z,18.89
2023-10-21T15:27:56.164Z,18.90
2023-10-21T15:31:18.736Z,18.90
2023-10-21T15:34:48.198Z,18.86
2023-10-21T15:38:09.857Z,18.86
2023-10-21T15:41:33.497Z,18.86
2023-10-21T15:44:57.307Z,18.82
2023-10-21T15:48:24.206Z,18.85
2023-10-21T15:51:46.025Z,18.77
2023-10-21T15:55:08.924Z,18.73
2023-10-21T15:58:33.062Z,18.76
2023-10-21T16:01:54.752Z,18.72
2023-10-21T16:05:17.118Z,18.69
2023-10-21T16:08:41.666Z,18.70
2023-10-21T16:12:06.457Z,18.69
2023-10-21T16:15:31.778Z,18.72
2023-10-21T16:18:55.778Z,18.69
2023-10-21T16:22:17.515Z,18.69
2023-10-21T16:25:40.624Z,18.68
2023-10-21T16:29:02.434Z,18.56
2023-10-21T16:32:24.095Z,18.68
2023-10-21T16:35:46.893Z,18.53
2023-10-21T16:39:08.629Z,18.47
2023-10-21T16:42:32.641Z,18.44
2023-10-21T16:45:54.315Z,18.41
2023-10-21T16:49:18.761Z,18.37
2023-10-21T16:52:40.360Z,18.31
2023-10-21T16:56:04.213Z,18.24
2023-10-21T16:59:28.479Z,18.24
2023-10-21T17:02:50.172Z,18.27
2023-10-21T17:06:14.283Z,18.25
2023-10-21T17:09:38.402Z,18.25
2023-10-21T17:13:00.169Z,18.27
2023-10-21T17:16:21.920Z,18.28
2023-10-21T17:19:45.763Z,18.24
2023-10-21T17:23:07.423Z,18.21
2023-10-21T17:26:29.045Z,18.13
2023-10-21T17:29:55.685Z,18.13
2023-10-21T17:33:19.779Z,18.08
2023-10-21T17:36:41.457Z,18.04
2023-10-21T17:40:08.586Z,18.00
2023-10-21T17:43:30.235Z,17.94
2023-10-21T17:46:51.862Z,17.96
2023-10-21T17:50:18.225Z,17.90
2023-10-21T17:53:42.275Z,17.90
2023-10-21T17:57:06.981Z,17.93
2023-10-21T18:00:31.471Z,17.90
2023-10-21T18:03:56.230Z,17.93
2023-10-21T18:07:20.143Z,17.93
2023-10-21T18:10:41.811Z,17.89
2023-10-21T18:14:05.786Z,17.87
2023-10-21T18:17:27.828Z,17.87
2023-10-21T18:20:54.251Z,17.77
2023-10-21T18:24:16.500Z,17.75
2023-10-21T18:27:40.480Z,17.75
2023-10-21T18:31:07.241Z,17.67
2023-10-21T18:34:29.099Z,17.65
2023-10-21T18:37:52.693Z,17.62
2023-10-21T18:41:14.362Z,17.63
2023-10-21T18:44:36.203Z,17.77
2023-10-21T18:47:58.089Z,18.01
2023-10-21T18:51:33.031Z,18.37
2023-10-21T18:54:55.671Z,18.62
2023-10-21T18:58:17.551Z,18.77
2023-10-21T19:01:44.094Z,18.89
2023-10-21T19:05:06.227Z,18.69
2023-10-21T19:08:30.112Z,18.47
2023-10-21T19:11:52.139Z,18.30
2023-10-21T19:15:13.736Z,18.15
2023-10-21T19:18:37.813Z,18.00
2023-10-21T19:22:00.132Z,17.94
2023-10-21T19:25:25.044Z,17.84
2023-10-21T19:28:48.927Z,17.77
2023-10-21T19:32:14.263Z,17.75
2023-10-21T19:35:38.273Z,17.73
2023-10-21T19:39:00.271Z,17.72
2023-10-21T19:42:21.968Z,17.65
2023-10-21T19:45:45.235Z,17.62
2023-10-21T19:49:06.952Z,17.63
2023-10-21T19:52:31.079Z,17.65
2023-10-21T19:55:59.727Z,17.59
2023-10-21T19:59:21.632Z,17.61
2023-10-21T20:02:43.365Z,17.61
2023-10-21T20:06:11.309Z,17.57
2023-10-21T20:09:38.167Z,17.63
2023-10-21T20:13:00.027Z,17.63
2023-10-21T20:16:24.263Z,17.67
2023-10-21T20:19:46.419Z,17.65
2023-10-21T20:23:10.376Z,17.76
2023-10-21T20:26:32.059Z,17.75
2023-10-21T20:29:53.729Z,17.62
2023-10-21T20:33:20.237Z,17.46
2023-10-21T20:36:41.982Z,17.53
2023-10-21T20:40:06.459Z,17.49
2023-10-21T20:43:30.361Z,17.55
2023-10-21T20:46:54.443Z,17.63
2023-10-21T20:50:20.147Z,17.61
2023-10-21T20:53:44.255Z,17.62
2023-10-21T20:57:05.928Z,17.63
2023-10-21T21:00:31.428Z,17.61
2023-10-21T21:03:53.430Z,17.57
2023-10-21T21:07:17.500Z,17.57
2023-10-21T21:10:39.442Z,17.55
2023-10-21T21:14:01.860Z,17.50
2023-10-21T21:17:25.745Z,17.50
2023-10-21T21:20:50.477Z,17.52
2023-10-21T21:24:14.636Z,17.49
2023-10-21T21:27:42.274Z,17.50
2023-10-21T21:31:09.126Z,17.48
2023-10-21T21:34:33.720Z,17.55
2023-10-21T21:37:55.337Z,17.57
2023-10-21T21:41:21.266Z,17.55
2023-10-21T21:44:42.904Z,17.50
2023-10-21T21:48:05.408Z,17.49
2023-10-21T21:51:27.320Z,17.48
2023-10-21T21:54:49.117Z,17.45
2023-10-21T21:58:11.806Z,17.43
2023-10-21T22:01:33.722Z,17.39
2023-10-21T22:04:55.396Z,17.32
2023-10-21T22:08:17.063Z,17.29
2023-10-21T22:11:38.690Z,17.27
2023-10-21T22:15:00.429Z,17.35
2023-10-21T22:18:22.678Z,17.31
2023-10-21T22:21:48.827Z,17.32
2023-10-21T22:25:27.306Z,17.35
2023-10-21T22:28:48.924Z,17.40
2023-10-21T22:32:10.656Z,17.36
2023-10-21T22:35:34.755Z,17.35
2023-10-21T22:38:59.940Z,17.38
2023-10-21T22:42:21.980Z,17.36
2023-10-21T22:45:48.799Z,17.28
2023-10-21T22:49:11.029Z,17.27
2023-10-21T22:52:35.223Z,17.22
2023-10-21T22:55:56.877Z,17.21
2023-10-21T22:59:20.937Z,17.28
2023-10-21T23:02:45.497Z,17.27
2023-10-21T23:06:09.475Z,17.25
2023-10-21T23:09:37.569Z,17.25
2023-10-21T23:12:59.297Z,17.24
2023-10-21T23:16:21.644Z,17.17
2023-10-21T23:19:43.719Z,17.14
2023-10-21T23:23:08.462Z,17.10
2023-10-21T23:26:32.641Z,17.03
2023-10-21T23:29:54.369Z,17.03
2023-10-21T23:33:18.324Z,16.85
2023-10-21T23:36:41.314Z,16.97
2023-10-21T23:40:10.535Z,17.01
2023-10-21T23:43:32.769Z,17.06
2023-10-21T23:46:56.703Z,17.06
2023-10-21T23:50:20.785Z,16.95
2023-10-21T23:53:47.128Z,16.95
2023-10-21T23:57:17.212Z,16.91
